Time;durP1;ratioP1;P1;durP2;ratioP2;P2;SDS_P1;SDS_P2;PMS_P1;PMS_P2;Temp;Humidity;BMP_temperature;BMP_pressure;BME280_temperature;BME280_humidity;BME280_pressure;Samples;Min_cycle;Max_cycle;Signal;HPM_P1;HPM_P2
2023/02/25 00:12:03;;;;;;;26.40;12.40;;;;;;;5.80;82.20;98018.51;671459;1265;141068;-89
2023/02/25 00:27:06;;;;;;;31.50;12.90;;;;;;;5.73;83.33;97990.05;671149;1262;138445;-90
2023/02/25 00:42:15;;;;;;;25.60;13.30;;;;;;;5.76;82.59;97972.83;670823;1261;138838;-90
2023/02/25 00:57:18;;;;;;;74.50;36.40;;;;;;;5.69;82.36;97959.98;670886;1264;139344;-89
2023/02/25 01:12:21;;;;;;;37.40;18.70;;;;;;;5.57;83.04;97940.45;670069;1265;139427;-90
2023/02/25 01:27:27;;;;;;;22.60;11.80;;;;;;;5.55;82.62;97922.48;670721;1264;138733;-91
2023/02/25 01:42:30;;;;;;;30.30;16.10;;;;;;;5.60;82.78;97896.44;669950;1264;138745;-90
2023/02/25 01:57:35;;;;;;;18.40;10.00;;;;;;;5.62;82.36;97890.29;669128;1268;138553;-90
2023/02/25 02:12:43;;;;;;;19.10;12.40;;;;;;;5.52;83.44;97876.83;671155;1268;140659;-90
2023/02/25 02:28:21;;;;;;;15.70;10.10;;;;;;;5.52;83.59;97850.14;670079;1264;138141;-89
2023/02/25 02:43:51;;;;;;;22.00;10.70;;;;;;;5.43;84.36;97844.41;670557;1262;138451;-90
2023/02/25 02:59:01;;;;;;;19.50;11.50;;;;;;;5.44;84.76;97833.20;671423;1264;139310;-90
2023/02/25 03:14:07;;;;;;;17.60;9.30;;;;;;;5.48;85.19;97817.47;670172;1264;139536;-90
2023/02/25 03:29:17;;;;;;;19.80;10.30;;;;;;;5.42;86.11;97810.60;671400;1276;138071;-89
2023/02/25 03:44:29;;;;;;;32.20;17.30;;;;;;;5.42;86.44;97802.28;670769;1261;138406;-91
2023/02/25 03:59:32;;;;;;;35.20;18.00;;;;;;;5.38;87.76;97798.55;671092;1264;139914;-91
2023/02/25 04:14:35;;;;;;;39.60;18.70;;;;;;;5.36;87.92;97800.48;673203;1264;139054;-91
2023/02/25 04:29:39;;;;;;;29.40;14.70;;;;;;;5.49;87.81;97793.02;672333;1264;139232;-90
2023/02/25 04:44:42;;;;;;;51.70;24.70;;;;;;;5.53;87.99;97783.45;670297;1265;138622;-90
2023/02/25 04:59:46;;;;;;;29.90;16.10;;;;;;;5.45;89.28;97776.28;673228;1264;138487;-90
2023/02/25 05:14:49;;;;;;;31.10;14.70;;;;;;;5.44;90.43;97767.02;671188;1264;138895;-89
2023/02/25 05:29:53;;;;;;;40.70;20.70;;;;;;;5.51;89.86;97760.05;672650;1265;139068;-88
2023/02/25 05:44:57;;;;;;;40.20;18.80;;;;;;;5.51;90.52;97756.55;673085;1266;139119;-89
2023/02/25 06:00:00;;;;;;;32.10;14.80;;;;;;;5.55;90.93;97764.54;671330;1264;140042;-89
2023/02/25 06:15:14;;;;;;;24.70;13.00;;;;;;;5.57;91.47;97769.52;671933;1264;138222;-89
2023/02/25 06:30:17;;;;;;;36.50;19.20;;;;;;;5.75;90.48;97772.27;672957;1267;139947;-88
2023/02/25 06:45:20;;;;;;;37.60;19.50;;;;;;;5.83;90.47;97770.30;671345;1266;138346;-89
2023/02/25 07:00:24;;;;;;;34.00;16.70;;;;;;;5.95;89.99;97772.90;669516;1276;139030;-90
2023/02/25 07:15:27;;;;;;;40.10;22.60;;;;;;;5.93;91.18;97774.63;670280;1275;174589;-89
2023/02/25 07:30:30;;;;;;;41.90;22.10;;;;;;;5.98;91.51;97768.23;671718;1270;137982;-90
2023/02/25 07:45:33;;;;;;;54.50;34.40;;;;;;;5.96;91.82;97768.04;669689;1274;138817;-88
2023/02/25 08:00:37;;;;;;;53.40;27.70;;;;;;;6.12;91.32;97769.30;672807;1275;138994;-88
2023/02/25 08:15:42;;;;;;;1999.00;789.30;;;;;;;6.17;92.02;97767.17;671873;1267;138633;-88
2023/02/25 08:30:45;;;;;;;80.20;39.90;;;;;;;6.13;92.72;97766.98;672159;1264;140082;-87
2023/02/25 08:45:49;;;;;;;49.40;23.10;;;;;;;6.33;93.15;97777.98;670791;1264;138453;-89
2023/02/25 09:00:54;;;;;;;41.40;18.70;;;;;;;6.43;93.21;97776.64;672433;1278;139002;-90
2023/02/25 09:15:58;;;;;;;40.60;19.40;;;;;;;6.66;92.58;97781.96;672255;1265;138297;-90
2023/02/25 09:31:01;;;;;;;38.20;19.20;;;;;;;6.89;92.11;97795.55;670642;1263;138641;-90
2023/02/25 09:46:09;;;;;;;39.90;19.80;;;;;;;6.91;92.09;97800.91;671203;1261;138595;-91
2023/02/25 10:01:17;;;;;;;43.20;21.00;;;;;;;7.04;92.51;97804.95;673785;1267;138997;-91
2023/02/25 10:16:44;;;;;;;74.30;36.60;;;;;;;7.35;91.59;97808.65;673589;1264;138455;-91
2023/02/25 10:31:48;;;;;;;65.20;32.90;;;;;;;7.64;90.16;97818.24;673798;1266;138683;-91
2023/02/25 10:46:59;;;;;;;243.60;99.70;;;;;;;7.20;89.74;97824.41;670769;1265;138760;-90
2023/02/25 11:02:16;;;;;;;28.40;16.80;;;;;;;7.07;90.06;97834.24;669683;1261;140439;-90
2023/02/25 11:17:20;;;;;;;54.30;30.50;;;;;;;7.14;89.71;97844.41;670881;1264;138779;-91
2023/02/25 11:32:24;;;;;;;50.00;27.80;;;;;;;7.45;89.16;97853.09;671326;1264;139091;-91
2023/02/25 11:47:33;;;;;;;45.20;26.20;;;;;;;7.65;87.66;97853.27;673597;1275;138271;-91
2023/02/25 12:02:55;;;;;;;20.80;13.00;;;;;;;8.15;86.42;97870.48;676086;1264;138581;-89
2023/02/25 12:18:23;;;;;;;20.40;8.50;;;;;;;7.88;86.32;97884.88;673012;1260;138802;-91
2023/02/25 12:34:04;;;;;;;13.30;7.80;;;;;;;7.63;86.11;97901.13;676021;1262;139580;-90
2023/02/25 12:49:44;;;;;;;12.20;7.40;;;;;;;7.79;86.61;97914.71;674070;1274;139226;-90
2023/02/25 13:05:07;;;;;;;22.20;11.10;;;;;;;8.26;86.56;97931.25;674027;1274;139049;-89
2023/02/25 13:20:11;;;;;;;15.90;9.00;;;;;;;8.59;86.15;97945.45;677371;1261;139047;-91
2023/02/25 13:35:23;;;;;;;19.80;9.90;;;;;;;10.04;83.03;97958.32;679562;1262;138402;-91
2023/02/25 13:50:36;;;;;;;17.40;10.50;;;;;;;9.10;81.22;97978.30;676692;1262;139113;-94
2023/02/25 14:06:00;;;;;;;20.50;11.60;;;;;;;8.42;81.06;98002.03;678446;1262;138759;-89
2023/02/25 14:21:49;;;;;;;24.40;11.00;;;;;;;8.10;81.75;98025.70;680577;1263;138477;-92
2023/02/25 14:37:26;;;;;;;33.10;14.00;;;;;;;8.08;82.22;98042.40;681914;1262;137530;-90
2023/02/25 14:52:45;;;;;;;18.00;9.80;;;;;;;7.72;82.52;98066.49;676829;1258;138312;-92
2023/02/25 15:07:48;;;;;;;;;;;;;;;7.36;83.27;98098.54;675003;1259;138952;-91
2023/02/25 15:23:06;;;;;;;26.00;9.00;;;;;;;7.07;84.02;98130.06;674356;1263;124826;-92
2023/02/25 15:38:44;;;;;;;17.20;8.70;;;;;;;6.75;83.99;98156.87;674214;1262;138166;-89
2023/02/25 15:53:49;;;;;;;35.00;13.30;;;;;;;6.64;84.41;98189.80;671678;1262;137988;-89
2023/02/25 16:09:09;;;;;;;10.90;5.30;;;;;;;6.41;84.56;98212.50;673862;1264;138507;-92
2023/02/25 16:24:13;;;;;;;76.90;23.80;;;;;;;5.97;85.92;98253.27;674091;1262;137875;-90
2023/02/25 16:39:26;;;;;;;62.80;27.10;;;;;;;5.80;86.95;98297.76;673918;1263;138981;-88
2023/02/25 16:54:34;;;;;;;65.00;29.60;;;;;;;5.74;87.24;98337.46;672204;1261;138705;-91
2023/02/25 17:09:50;;;;;;;69.80;24.60;;;;;;;5.57;86.81;98376.90;674282;1262;138352;-89
2023/02/25 17:24:57;;;;;;;90.20;29.40;;;;;;;5.50;86.74;98410.73;673704;1260;138485;-90
2023/02/25 17:40:01;;;;;;;67.00;23.20;;;;;;;5.45;86.63;98445.98;672461;1263;138360;-92
2023/02/25 17:55:19;;;;;;;36.00;14.10;;;;;;;5.57;84.97;98471.39;672856;1264;138266;-89
2023/02/25 18:10:29;;;;;;;26.00;10.20;;;;;;;5.30;84.29;98500.54;674361;1262;138975;-89
2023/02/25 18:25:37;;;;;;;33.00;12.40;;;;;;;5.16;83.63;98527.09;672658;1262;138358;-91
2023/02/25 18:40:40;;;;;;;22.80;9.40;;;;;;;5.04;84.52;98558.70;672673;1262;139199;-92
2023/02/25 18:55:44;;;;;;;21.30;8.70;;;;;;;4.98;83.11;98589.23;673820;1262;138417;-87
2023/02/25 19:10:50;;;;;;;32.90;8.90;;;;;;;4.89;82.60;98616.88;672684;1263;222916;-90
2023/02/25 19:25:59;;;;;;;58.00;15.70;;;;;;;4.85;82.23;98650.17;672363;1262;139115;-90
2023/02/25 19:41:05;;;;;;;54.40;12.90;;;;;;;4.77;82.96;98681.00;673602;1263;138884;-89
2023/02/25 19:56:09;;;;;;;44.30;11.60;;;;;;;4.57;82.62;98706.88;675533;1260;138438;-91
2023/02/25 20:11:15;;;;;;;23.10;8.60;;;;;;;4.41;82.11;98746.20;675596;1263;138339;-89
2023/02/25 20:26:23;;;;;;;34.20;10.90;;;;;;;4.26;82.03;98776.00;676027;1260;139156;-91
2023/02/25 20:41:29;;;;;;;24.60;8.90;;;;;;;4.22;81.98;98804.52;677024;1277;139111;-91
2023/02/25 20:56:33;;;;;;;23.10;15.10;;;;;;;4.21;81.91;98825.61;675636;1260;139780;-92
2023/02/25 21:11:38;;;;;;;18.60;5.70;;;;;;;4.17;81.29;98852.69;674147;1263;138756;-91
2023/02/25 21:26:43;;;;;;;18.00;7.00;;;;;;;4.18;81.73;98881.05;674333;1263;138939;-90
2023/02/25 21:41:46;;;;;;;11.10;5.60;;;;;;;4.20;81.24;98899.05;673664;1263;138677;-91
2023/02/25 21:56:50;;;;;;;10.60;5.00;;;;;;;4.23;80.85;98915.21;672244;1262;139419;-87
2023/02/25 22:11:53;;;;;;;12.10;5.60;;;;;;;4.24;81.09;98934.33;672755;1262;138762;-89
2023/02/25 22:26:57;;;;;;;12.30;4.30;;;;;;;4.14;80.96;98963.22;671270;1265;138741;-89
2023/02/25 22:42:00;;;;;;;11.20;4.70;;;;;;;4.08;80.27;98986.86;671802;1265;138330;-88
2023/02/25 22:57:04;;;;;;;17.40;6.60;;;;;;;4.01;79.80;99013.54;671473;1260;138671;-88
2023/02/25 23:12:08;;;;;;;11.20;4.80;;;;;;;3.93;79.47;99035.65;671822;1265;139115;-88
2023/02/25 23:27:11;;;;;;;6.00;3.50;;;;;;;3.79;78.87;99052.70;671092;1263;138796;-87
2023/02/25 23:42:15;;;;;;;14.90;7.70;;;;;;;3.55;78.65;99070.65;670166;1263;139356;-87
2023/02/25 23:57:19;;;;;;;7.60;4.00;;;;;;;3.36;78.00;99103.05;671766;1273;138618;-86
